Weather History for KCOF - December, 2012

Change the Weather History Date:

Saturday, December 8, 2012

  Actual Average Record
Temperature  
Mean Temperature 70 °F -  
Max Temperature 75 °F 71 °F 82 °F (2004)
Min Temperature 65 °F 60 °F 41 °F (2010)
Cooling Degree Days 5    
Growing Degree Days 20 (Base 50)    
Moisture  
Dew Point 67 °F    
Average Humidity 93    
Maximum Humidity 100    
Minimum Humidity 80    
Precipitation  
Precipitation 0.00 in - - ()
Sea Level Pressure  
Sea Level Pressure 30.04 in    
Wind  
Wind Speed 6 mph (North)    
Max Wind Speed 10 mph    
Max Gust Speed -    
Visibility 6 miles    
Events Fog    
Averages and records for this station are not official NWS values.
T = Trace of Precipitation, MM = Missing Value Source: NWS Daily Summary

Daily Weather History Graph

Daily Weather History Graph

Search for Another Location

Airport or City:

Trip Planner

Search our weather history database for the weather conditions in past years. The results will help you decide how hot, cold, wet, or windy it might be!

Date:

Astronomy

Dec. 08, 2012 Rise Set
Actual Time 7:02 AM EST 5:26 PM EST
Civil Twilight 6:36 AM EST 5:52 PM EST
Nautical Twilight 6:07 AM EST 6:21 PM EST
Astronomical Twilight 5:38 AM EST 6:50 PM EST
Moon 1:46 AM EST (12/8) 1:37 PM EST (12/8)
Length of Visible Light 11h 15m
Length of Day
10h 24m
Waning Crescent, 28% of the Moon is Illuminated
Dec 8
Waning Crescent
Dec 13
New
Dec 20
First Quarter
Dec 28
Full
Jan 4
Last Quarter

Hourly Weather History & Observations

Time (EST) Temp. Dew Point Humidity Pressure Visibility Wind Dir Wind Speed Gust Speed Precip Events Conditions
12:02 AM 68.0 °F 66.2 °F 94% 30.01 in 10.0 mi NNW 6.9 mph - N/A   Mostly Cloudy
12:06 AM 68.0 °F 66.2 °F 94% 30.01 in 10.0 mi NNW 8.1 mph - N/A   Mostly Cloudy
12:55 AM 66.7 °F 65.7 °F 96% 30.01 in 10.0 mi North 5.8 mph - N/A   Overcast
1:10 AM 66.2 °F 66.2 °F 100% 30.01 in 10.0 mi North 4.6 mph - N/A   Overcast
1:55 AM 66.6 °F 65.1 °F 95% 30.00 in 10.0 mi North 5.8 mph - N/A   Overcast
2:09 AM 66.2 °F 66.2 °F 100% 30.00 in 10.0 mi North 4.6 mph - N/A   Overcast
2:33 AM 66.2 °F 66.2 °F 100% 30.00 in 10.0 mi NNW 6.9 mph - N/A   Overcast
2:55 AM 66.4 °F 65.3 °F 96% 30.00 in 10.0 mi NNW 5.8 mph - N/A   Overcast
3:37 AM 66.2 °F 64.4 °F 94% 30.00 in 10.0 mi North 5.8 mph - N/A   Mostly Cloudy
3:55 AM 65.7 °F 64.6 °F 96% 30.00 in 10.0 mi North 5.8 mph - N/A   Mostly Cloudy
4:17 AM 66.2 °F 64.4 °F 94% 30.00 in 8.0 mi North 5.8 mph - N/A   Overcast
4:23 AM 66.2 °F 64.4 °F 94% 30.00 in 2.5 mi NNW 5.8 mph - N/A   Overcast
4:25 AM 66.2 °F 64.4 °F 94% 30.00 in 1.5 mi NNW 5.8 mph - N/A   Overcast
4:29 AM 66.2 °F 64.4 °F 94% 30.00 in 0.8 mi NNW 4.6 mph - N/A   Mist
4:32 AM 66.2 °F 64.4 °F 94% 30.00 in 0.8 mi NNW 5.8 mph - N/A   Mist
4:46 AM 66.2 °F 64.4 °F 94% 30.00 in 0.5 mi North 5.8 mph - N/A Fog Fog
4:55 AM 65.8 °F 64.9 °F 97% 30.00 in 0.5 mi NNW 5.8 mph - N/A Fog Fog
5:02 AM 66.2 °F 64.4 °F 94% 30.00 in 0.8 mi NNW 5.8 mph - N/A   Mist
5:46 AM 66.2 °F 66.2 °F 100% 30.01 in 0.5 mi North 4.6 mph - N/A Fog Fog
5:55 AM 66.0 °F 65.5 °F 98% 30.01 in 0.5 mi North 4.6 mph - N/A Fog Fog
6:55 AM 66.2 °F 65.7 °F 98% 30.03 in 0.5 mi North 3.5 mph - N/A Fog Fog
6:57 AM 66.2 °F 66.2 °F 100% 30.03 in 0.2 mi North 3.5 mph - N/A Fog Fog
7:22 AM 66.2 °F 66.2 °F 100% 30.04 in 0.2 mi NNW 4.6 mph - N/A Fog Fog
7:25 AM 66.2 °F 66.2 °F 100% 30.04 in 0.5 mi NNW 4.6 mph - N/A Fog Fog
7:32 AM 66.2 °F 66.2 °F 100% 30.04 in 0.2 mi NNW 5.8 mph - N/A Fog Fog
7:39 AM 66.2 °F 66.2 °F 100% 30.05 in 0.2 mi NNW 5.8 mph - N/A Fog Fog
7:55 AM 66.4 °F 65.7 °F 98% 30.05 in 0.2 mi NW 6.9 mph - N/A Fog Fog
8:22 AM 66.2 °F 66.2 °F 100% 30.06 in 0.2 mi NNW 5.8 mph - N/A Fog Fog
8:23 AM 66.2 °F 64.4 °F 94% 30.06 in 0.5 mi NNW 6.9 mph - N/A Fog Fog
8:30 AM 66.2 °F 66.2 °F 100% 30.06 in 0.8 mi NNW 6.9 mph - N/A   Mist
8:42 AM 66.2 °F 66.2 °F 100% 30.07 in 0.5 mi NNW 5.8 mph - N/A Fog Fog
8:55 AM 66.7 °F 66.2 °F 98% 30.07 in 0.5 mi NW 5.8 mph - N/A Fog Fog
9:17 AM 68.0 °F 66.2 °F 94% 30.08 in 0.8 mi NNW 4.6 mph - N/A   Mist
9:21 AM 68.0 °F 66.2 °F 94% 30.08 in 0.8 mi NNW 4.6 mph - N/A   Mist
9:24 AM 68.0 °F 66.2 °F 94% 30.09 in 1.0 mi NNW 5.8 mph - N/A   Mist
9:30 AM 68.0 °F 68.0 °F 100% 30.09 in 1.5 mi NNW 5.8 mph - N/A   Overcast
9:39 AM 68.0 °F 68.0 °F 100% 30.09 in 2.0 mi NW 5.8 mph - N/A   Overcast
9:47 AM 69.8 °F 68.0 °F 94% 30.09 in 3.0 mi NW 5.8 mph - N/A   Overcast
9:55 AM 69.1 °F 68.5 °F 98% 30.09 in 4.0 mi NNW 5.8 mph - N/A   Overcast
10:09 AM 69.8 °F 68.0 °F 94% 30.08 in 10.0 mi NNW 5.8 mph - N/A   Scattered Clouds
10:55 AM 73.4 °F 68.0 °F 83% 30.07 in 10.0 mi NW 4.6 mph - N/A   Clear
11:55 AM 75.6 °F 68.9 °F 80% 30.04 in 10.0 mi WNW 5.8 mph - N/A   Partly Cloudy
12:01 PM 75.2 °F 69.8 °F 83% 30.04 in 10.0 mi NNW 3.5 mph - N/A   Mostly Cloudy
12:09 PM 75.2 °F 69.8 °F 83% 30.04 in 10.0 mi North 3.5 mph - N/A   Mostly Cloudy
12:17 PM 75.2 °F 69.8 °F 83% 30.04 in 10.0 mi NE 6.9 mph - N/A   Mostly Cloudy
12:24 PM 75.2 °F 69.8 °F 83% 30.04 in 10.0 mi NNE 6.9 mph - N/A   Scattered Clouds
12:55 PM 75.7 °F 69.6 °F 81% 30.03 in 10.0 mi NE 8.1 mph - N/A   Clear
1:55 PM 75.4 °F 68.9 °F 80% 30.01 in 10.0 mi NE 9.2 mph - N/A   Clear
2:55 PM 75.2 °F 69.6 °F 83% 30.01 in 10.0 mi ENE 8.1 mph - N/A   Clear
3:55 PM 75.0 °F 69.4 °F 83% 30.01 in 10.0 mi NE 10.4 mph - N/A   Clear
4:55 PM 74.3 °F 68.9 °F 83% 30.01 in 10.0 mi NE 9.2 mph - N/A   Clear
5:55 PM 73.0 °F 69.6 °F 89% 30.02 in 10.0 mi NE 6.9 mph - N/A   Clear
6:55 PM 73.9 °F 69.1 °F 85% 30.04 in 10.0 mi East 5.8 mph - N/A   Scattered Clouds
7:55 PM 73.6 °F 68.9 °F 85% 30.04 in 10.0 mi East 4.6 mph - N/A   Clear
8:55 PM 73.6 °F 69.8 °F 88% 30.06 in 10.0 mi ESE 5.8 mph - N/A   Mostly Cloudy
9:55 PM 73.2 °F 70.2 °F 90% 30.07 in 10.0 mi East 3.5 mph - N/A   Partly Cloudy
10:55 PM 74.1 °F 70.3 °F 88% 30.07 in 10.0 mi East 5.8 mph - N/A   Clear
11:55 PM 73.2 °F 70.2 °F 90% 30.06 in 10.0 mi ESE 6.9 mph - N/A   Mostly Cloudy